Time;durP1;ratioP1;P1;durP2;ratioP2;P2;SDS_P1;SDS_P2;PMS_P1;PMS_P2;Temp;Humidity;BMP_temperature;BMP_pressure;BME280_temperature;BME280_humidity;BME280_pressure;Samples;Min_cycle;Max_cycle;Signal;HPM_P1;HPM_P2
2023/06/01 00:00:25;;;;;;;0.10;0.10;;;12.00;99.90;;;;;;4840740;29;20049;-85
2023/06/01 00:02:50;;;;;;;0.10;0.10;;;12.00;99.90;;;;;;4840450;29;20670;-85
2023/06/01 00:05:16;;;;;;;0.15;0.15;;;12.00;99.90;;;;;;4824689;29;20452;-85
2023/06/01 00:07:42;;;;;;;0.10;0.10;;;12.00;99.90;;;;;;4839763;29;20050;-85
2023/06/01 00:10:08;;;;;;;0.10;0.10;;;11.90;99.90;;;;;;4825303;29;20098;-87
2023/06/01 00:12:34;;;;;;;0.20;0.20;;;12.00;99.90;;;;;;4829637;29;20041;-85
2023/06/01 00:14:59;;;;;;;0.20;0.20;;;11.90;99.90;;;;;;4824948;29;20403;-85
2023/06/01 00:17:25;;;;;;;0.20;0.20;;;11.90;99.90;;;;;;4826661;29;20046;-85
2023/06/01 00:19:52;;;;;;;0.20;0.20;;;12.00;99.90;;;;;;4825177;29;20046;-85
2023/06/01 00:22:19;;;;;;;0.10;0.10;;;11.90;99.90;;;;;;4824264;29;20452;-86
2023/06/01 00:24:44;;;;;;;0.20;0.20;;;11.90;99.90;;;;;;4822603;29;20514;-84
2023/06/01 00:27:10;;;;;;;0.20;0.20;;;11.90;99.90;;;;;;4823837;29;20045;-84
2023/06/01 00:29:36;;;;;;;0.10;0.10;;;12.00;99.90;;;;;;4824816;29;20118;-86
2023/06/01 00:32:01;;;;;;;0.10;0.10;;;11.90;99.90;;;;;;4824848;29;20521;-86
2023/06/01 00:34:27;;;;;;;0.10;0.10;;;11.90;99.90;;;;;;4839365;29;20122;-85
2023/06/01 00:36:53;;;;;;;0.13;0.13;;;11.90;99.90;;;;;;4818166;29;20133;-86
2023/06/01 00:39:18;;;;;;;0.10;0.10;;;11.90;99.90;;;;;;4830121;29;20122;-85
2023/06/01 00:41:44;;;;;;;0.17;0.17;;;11.90;99.90;;;;;;4838062;29;20167;-86
2023/06/01 00:44:10;;;;;;;0.10;0.10;;;11.90;99.90;;;;;;4840957;29;20044;-86
2023/06/01 00:46:37;;;;;;;0.10;0.10;;;11.90;99.90;;;;;;4840460;29;20038;-84
2023/06/01 00:49:02;;;;;;;0.20;0.20;;;11.90;99.90;;;;;;4841418;29;20049;-84
2023/06/01 00:51:28;;;;;;;0.13;0.13;;;11.90;99.90;;;;;;4817219;29;20053;-86
2023/06/01 00:53:54;;;;;;;0.10;0.10;;;11.90;99.90;;;;;;4826578;29;20046;-86
2023/06/01 00:56:21;;;;;;;0.10;0.10;;;11.80;99.90;;;;;;4838310;29;20665;-86
2023/06/01 00:58:46;;;;;;;0.20;0.20;;;11.90;99.90;;;;;;4816664;29;20058;-85
2023/06/01 01:01:18;;;;;;;0.10;0.10;;;11.90;99.90;;;;;;4829502;29;20403;-87
2023/06/01 01:03:57;;;;;;;0.20;0.20;;;11.90;99.90;;;;;;4821979;29;20050;-84
2023/06/01 01:06:25;;;;;;;0.20;0.20;;;11.90;99.90;;;;;;4836739;29;20060;-85
2023/06/01 01:08:59;;;;;;;0.20;0.20;;;11.90;99.90;;;;;;4838675;29;20102;-87
2023/06/01 01:11:29;;;;;;;0.10;0.10;;;11.80;99.90;;;;;;4840848;29;20495;-86
2023/06/01 01:14:01;;;;;;;0.20;0.20;;;11.90;99.90;;;;;;4840215;29;20394;-85
2023/06/01 01:16:31;;;;;;;0.10;0.10;;;11.90;99.90;;;;;;4837007;29;20049;-86
2023/06/01 01:19:25;;;;;;;0.10;0.10;;;11.90;99.90;;;;;;4822482;29;20050;-86
2023/06/01 01:22:22;;;;;;;0.20;0.20;;;11.90;99.90;;;;;;4819549;29;20054;-86
2023/06/01 01:25:03;;;;;;;0.10;0.10;;;11.90;99.90;;;;;;4814956;29;20050;-84
2023/06/01 01:27:52;;;;;;;0.10;0.10;;;11.90;99.90;;;;;;4837171;29;20042;-85
2023/06/01 01:30:22;;;;;;;0.10;0.10;;;11.90;99.90;;;;;;4817074;29;20061;-84
2023/06/01 01:32:50;;;;;;;0.20;0.20;;;11.90;99.90;;;;;;4826280;29;20065;-87
2023/06/01 01:35:17;;;;;;;0.10;0.10;;;11.90;99.90;;;;;;4827101;29;20125;-87
2023/06/01 01:37:53;;;;;;;0.10;0.10;;;11.80;99.90;;;;;;4808442;29;20055;-85
2023/06/01 01:40:20;;;;;;;0.20;0.20;;;11.80;99.90;;;;;;4821641;29;20042;-85
2023/06/01 01:42:47;;;;;;;0.17;0.17;;;11.80;99.90;;;;;;4822887;29;20094;-87
2023/06/01 01:45:15;;;;;;;0.10;0.10;;;11.80;99.90;;;;;;4840074;29;20042;-85
2023/06/01 01:48:02;;;;;;;0.20;0.20;;;11.80;99.90;;;;;;4839889;29;20137;-86
2023/06/01 01:50:34;;;;;;;0.20;0.20;;;11.80;99.90;;;;;;4822981;29;20057;-87
2023/06/01 01:53:01;;;;;;;0.10;0.10;;;11.70;99.90;;;;;;4847393;29;20118;-85
2023/06/01 01:55:30;;;;;;;0.10;0.10;;;11.70;99.90;;;;;;4817057;29;20056;-83
2023/06/01 01:57:58;;;;;;;0.20;0.20;;;12.00;99.90;;;;;;4812519;29;20056;-86
2023/06/01 02:00:24;;;;;;;0.10;0.10;;;11.80;99.90;;;;;;4823682;29;20411;-85
2023/06/01 02:02:50;;;;;;;0.20;0.20;;;11.70;99.90;;;;;;4837069;29;20038;-87
2023/06/01 02:05:15;;;;;;;0.20;0.20;;;11.70;99.90;;;;;;4837716;29;20562;-87
2023/06/01 02:07:41;;;;;;;0.20;0.20;;;11.70;99.90;;;;;;4836312;29;20060;-86
2023/06/01 02:10:07;;;;;;;0.20;0.20;;;11.70;99.90;;;;;;4843791;29;20121;-89
2023/06/01 02:12:32;;;;;;;0.15;0.15;;;11.70;99.90;;;;;;4847270;29;20034;-85
2023/06/01 02:14:58;;;;;;;0.20;0.20;;;11.70;99.90;;;;;;4824967;29;20113;-84
2023/06/01 02:17:26;;;;;;;0.10;0.10;;;11.70;99.90;;;;;;4838325;29;20046;-85
2023/06/01 02:19:52;;;;;;;0.10;0.10;;;11.70;99.90;;;;;;4839444;29;20045;-86
2023/06/01 02:22:18;;;;;;;0.20;0.20;;;11.70;99.90;;;;;;4824761;29;20057;-85
2023/06/01 02:24:43;;;;;;;0.10;0.10;;;11.70;99.90;;;;;;4839518;29;20512;-88
2023/06/01 02:27:09;;;;;;;0.10;0.10;;;11.70;99.90;;;;;;4839292;29;20102;-84
2023/06/01 02:29:35;;;;;;;0.10;0.10;;;11.70;99.90;;;;;;4822408;29;20042;-87
2023/06/01 02:32:00;;;;;;;0.10;0.10;;;11.70;99.90;;;;;;4823654;29;20054;-88
2023/06/01 02:34:26;;;;;;;0.10;0.10;;;11.70;99.90;;;;;;4812682;29;20046;-86
2023/06/01 02:36:55;;;;;;;0.20;0.20;;;11.70;99.90;;;;;;4827542;29;20083;-83
2023/06/01 02:39:21;;;;;;;0.20;0.20;;;11.70;99.90;;;;;;4842409;29;20046;-84
2023/06/01 02:41:47;;;;;;;0.20;0.20;;;11.70;99.90;;;;;;4826530;29;20088;-83
2023/06/01 02:44:13;;;;;;;0.10;0.10;;;11.70;99.90;;;;;;4824586;29;20073;-84
2023/06/01 02:46:38;;;;;;;0.20;0.20;;;11.70;99.90;;;;;;4843823;29;20052;-87
2023/06/01 02:49:04;;;;;;;0.20;0.20;;;11.70;99.90;;;;;;4826090;29;20414;-88
2023/06/01 02:51:31;;;;;;;0.10;0.10;;;11.70;99.90;;;;;;4851378;29;20827;-86
2023/06/01 02:53:57;;;;;;;0.10;0.10;;;11.70;99.90;;;;;;4825976;29;20057;-85
2023/06/01 02:56:22;;;;;;;0.10;0.10;;;11.70;99.90;;;;;;4844648;29;20041;-85
2023/06/01 02:58:49;;;;;;;0.10;0.10;;;11.70;99.90;;;;;;4837669;29;20688;-86
2023/06/01 03:01:14;;;;;;;0.20;0.20;;;11.70;99.90;;;;;;4844159;29;20052;-88
2023/06/01 03:03:41;;;;;;;0.20;0.20;;;11.70;99.90;;;;;;4854763;29;20046;-88
2023/06/01 03:06:08;;;;;;;0.10;0.10;;;11.70;99.90;;;;;;4835542;29;20078;-86
2023/06/01 03:08:35;;;;;;;0.10;0.10;;;11.80;99.90;;;;;;4850401;29;20050;-86
2023/06/01 03:11:01;;;;;;;0.15;0.15;;;11.80;99.90;;;;;;4846290;29;20110;-88
2023/06/01 03:13:26;;;;;;;0.10;0.10;;;11.80;99.90;;;;;;4827593;29;20122;-87
2023/06/01 03:15:52;;;;;;;0.10;0.10;;;11.80;99.90;;;;;;4835221;29;20058;-88
2023/06/01 03:18:17;;;;;;;0.10;0.10;;;11.80;99.90;;;;;;4825161;29;20102;-88
2023/06/01 03:20:43;;;;;;;0.20;0.20;;;11.80;99.90;;;;;;4824483;29;20049;-89
2023/06/01 03:23:09;;;;;;;0.10;0.10;;;11.80;99.90;;;;;;4837325;29;20057;-87
2023/06/01 03:25:35;;;;;;;0.20;0.20;;;11.80;99.90;;;;;;4825678;29;20483;-83
2023/06/01 03:28:00;;;;;;;0.10;0.10;;;11.80;99.90;;;;;;4842976;29;20467;-84
2023/06/01 03:30:26;;;;;;;0.20;0.20;;;11.80;99.90;;;;;;4846101;29;20081;-85
2023/06/01 03:32:52;;;;;;;0.20;0.20;;;11.80;99.90;;;;;;4826467;29;20046;-85
2023/06/01 03:35:17;;;;;;;0.10;0.10;;;11.70;99.90;;;;;;4832910;29;20128;-84
2023/06/01 03:37:45;;;;;;;0.13;0.13;;;11.80;99.90;;;;;;4847277;29;20148;-85
2023/06/01 03:40:10;;;;;;;0.10;0.10;;;11.70;99.90;;;;;;4841528;29;20056;-88
2023/06/01 03:42:41;;;;;;;0.10;0.10;;;11.70;99.90;;;;;;4826809;29;20042;-85
2023/06/01 03:45:08;;;;;;;0.10;0.10;;;11.70;99.90;;;;;;4827370;29;20050;-85
2023/06/01 03:47:34;;;;;;;0.20;0.20;;;11.80;99.90;;;;;;4841472;29;20049;-90
2023/06/01 03:50:03;;;;;;;0.10;0.10;;;11.70;99.90;;;;;;4826454;29;20050;-87
2023/06/01 03:52:29;;;;;;;0.17;0.17;;;11.70;99.90;;;;;;4823608;29;20051;-87
2023/06/01 03:54:56;;;;;;;0.10;0.10;;;11.70;99.90;;;;;;4827323;29;20683;-87
2023/06/01 03:57:23;;;;;;;0.20;0.20;;;11.70;99.90;;;;;;4823894;29;20057;-86
2023/06/01 03:59:48;;;;;;;0.10;0.10;;;11.70;99.90;;;;;;4840461;29;20069;-85
2023/06/01 04:02:14;;;;;;;0.10;0.10;;;11.70;99.90;;;;;;4846242;29;20034;-86
2023/06/01 04:04:45;;;;;;;0.10;0.10;;;11.70;99.90;;;;;;4856164;29;20046;-85
2023/06/01 04:07:14;;;;;;;0.30;0.30;;;11.70;99.90;;;;;;4845058;29;20042;-87
2023/06/01 04:09:43;;;;;;;0.10;0.10;;;11.70;99.90;;;;;;4833929;29;20049;-88
2023/06/01 04:12:10;;;;;;;0.10;0.10;;;11.70;99.90;;;;;;4842733;29;20042;-86
2023/06/01 04:14:36;;;;;;;0.20;0.20;;;11.70;99.90;;;;;;4811528;29;20073;-85
2023/06/01 04:17:02;;;;;;;0.10;0.10;;;11.70;99.90;;;;;;4824631;29;20667;-86
2023/06/01 04:19:28;;;;;;;0.10;0.10;;;11.70;99.90;;;;;;4840172;29;20042;-87
2023/06/01 04:21:54;;;;;;;0.10;0.10;;;11.70;99.90;;;;;;4830013;29;20060;-84
2023/06/01 04:24:20;;;;;;;0.20;0.20;;;11.70;99.90;;;;;;4847437;29;20054;-88
2023/06/01 04:26:46;;;;;;;0.13;0.13;;;11.70;99.90;;;;;;4845430;29;20057;-87
2023/06/01 04:29:11;;;;;;;0.10;0.10;;;11.70;99.90;;;;;;4830723;29;20128;-90
2023/06/01 04:31:39;;;;;;;0.10;0.10;;;11.70;99.90;;;;;;4848827;29;20038;-89
2023/06/01 04:34:05;;;;;;;0.10;0.10;;;11.70;99.90;;;;;;4825402;29;20053;-89
2023/06/01 04:36:37;;;;;;;0.10;0.10;;;11.70;99.90;;;;;;4843289;29;20435;-86
2023/06/01 04:39:04;;;;;;;0.20;0.20;;;11.60;99.90;;;;;;4823701;29;20143;-86
2023/06/01 04:41:30;;;;;;;0.10;0.10;;;11.60;99.90;;;;;;4826446;29;20056;-87
2023/06/01 04:43:58;;;;;;;0.10;0.10;;;11.60;99.90;;;;;;4837300;29;20050;-88
2023/06/01 04:46:26;;;;;;;0.20;0.20;;;11.60;99.90;;;;;;4823071;29;20068;-83
2023/06/01 04:48:57;;;;;;;0.15;0.15;;;11.60;99.90;;;;;;4825535;29;20049;-87
2023/06/01 04:51:23;;;;;;;0.13;0.13;;;11.60;99.90;;;;;;4843148;29;20052;-86
2023/06/01 04:53:51;;;;;;;0.10;0.10;;;11.60;99.90;;;;;;4825060;29;20396;-90
2023/06/01 04:56:24;;;;;;;0.10;0.10;;;11.60;99.90;;;;;;4842822;29;20129;-85
2023/06/01 04:58:51;;;;;;;0.20;0.20;;;11.60;99.90;;;;;;4833140;29;20134;-89
2023/06/01 05:01:17;;;;;;;0.17;0.17;;;11.60;99.90;;;;;;4842701;29;20065;-90
2023/06/01 05:03:46;;;;;;;0.15;0.15;;;11.60;99.90;;;;;;4858220;29;20052;-87
2023/06/01 05:06:13;;;;;;;0.20;0.20;;;11.60;99.90;;;;;;4841899;29;20073;-86
2023/06/01 05:08:39;;;;;;;0.20;0.20;;;12.20;99.90;;;;;;4827167;29;20122;-84
2023/06/01 05:11:06;;;;;;;0.20;0.20;;;11.70;99.90;;;;;;4824636;29;20054;-89
2023/06/01 05:13:35;;;;;;;0.10;0.10;;;11.70;99.90;;;;;;4829333;29;20077;-86
2023/06/01 05:16:01;;;;;;;0.20;0.20;;;11.70;99.90;;;;;;4841604;29;20058;-83
2023/06/01 05:18:26;;;;;;;0.10;0.10;;;11.70;99.90;;;;;;4823782;29;20053;-86
2023/06/01 05:20:52;;;;;;;0.20;0.20;;;11.70;99.90;;;;;;4844093;29;20110;-84
2023/06/01 05:23:18;;;;;;;0.10;0.10;;;11.70;99.90;;;;;;4842680;29;20058;-87
2023/06/01 05:25:43;;;;;;;0.20;0.20;;;11.80;99.90;;;;;;4843079;29;20053;-87
2023/06/01 05:28:09;;;;;;;0.20;0.20;;;11.70;99.90;;;;;;4841300;29;20049;-87
2023/06/01 05:30:35;;;;;;;0.20;0.20;;;11.70;99.90;;;;;;4844707;29;20045;-88
2023/06/01 05:33:01;;;;;;;0.20;0.20;;;11.40;99.90;;;;;;4846492;29;20700;-90
2023/06/01 05:35:27;;;;;;;0.10;0.10;;;11.80;99.90;;;;;;4847477;29;20046;-88
2023/06/01 05:37:52;;;;;;;0.20;0.20;;;11.70;99.90;;;;;;4827400;29;20575;-89
2023/06/01 05:40:19;;;;;;;0.10;0.10;;;11.80;99.90;;;;;;4841910;29;20125;-88
2023/06/01 05:42:44;;;;;;;0.10;0.10;;;11.80;99.90;;;;;;4826746;29;20094;-78
2023/06/01 05:45:10;;;;;;;0.10;0.10;;;11.80;99.90;;;;;;4838816;29;20050;-78
2023/06/01 05:47:36;;;;;;;0.10;0.10;;;11.80;99.90;;;;;;4822015;29;20456;-77
2023/06/01 05:50:02;;;;;;;0.10;0.10;;;11.90;99.90;;;;;;4822714;29;20152;-77
2023/06/01 05:52:27;;;;;;;0.20;0.20;;;11.80;99.90;;;;;;4822489;29;20135;-78
2023/06/01 05:54:53;;;;;;;0.20;0.20;;;11.90;99.90;;;;;;4837715;29;20045;-77
2023/06/01 05:57:20;;;;;;;0.10;0.10;;;11.90;99.90;;;;;;4827235;29;20168;-78
2023/06/01 05:59:46;;;;;;;0.17;0.17;;;11.90;99.90;;;;;;4821687;29;20148;-77
2023/06/01 06:02:13;;;;;;;0.10;0.10;;;11.90;99.90;;;;;;4819567;29;20129;-77
2023/06/01 06:04:40;;;;;;;0.10;0.10;;;11.90;99.90;;;;;;4837378;29;20054;-78
2023/06/01 06:07:06;;;;;;;0.10;0.10;;;11.90;99.90;;;;;;4838340;29;20135;-77
2023/06/01 06:09:32;;;;;;;0.13;0.13;;;11.90;99.90;;;;;;4838993;29;20053;-77
2023/06/01 06:11:58;;;;;;;0.10;0.10;;;11.90;99.90;;;;;;4821624;29;20050;-77
2023/06/01 06:14:23;;;;;;;0.10;0.10;;;11.90;99.90;;;;;;4839269;29;20140;-77
2023/06/01 06:16:49;;;;;;;0.17;0.17;;;11.90;99.90;;;;;;4838162;29;20136;-77
2023/06/01 06:19:16;;;;;;;0.10;0.10;;;11.90;99.90;;;;;;4834821;29;20053;-78
2023/06/01 06:21:42;;;;;;;0.17;0.17;;;12.00;99.90;;;;;;4821470;29;20055;-77
2023/06/01 06:24:08;;;;;;;0.10;0.10;;;12.00;99.90;;;;;;4821542;29;20062;-77
2023/06/01 06:26:34;;;;;;;0.20;0.20;;;12.00;99.90;;;;;;4821220;29;20045;-78
2023/06/01 06:28:59;;;;;;;0.10;0.10;;;12.00;99.90;;;;;;4819443;29;20053;-77
2023/06/01 06:31:25;;;;;;;0.20;0.20;;;12.00;99.90;;;;;;4817603;29;20054;-77
2023/06/01 06:33:52;;;;;;;0.10;0.10;;;12.00;99.90;;;;;;4819314;29;20695;-78
2023/06/01 06:36:17;;;;;;;0.20;0.20;;;12.00;99.90;;;;;;4804845;29;20077;-77
2023/06/01 06:38:44;;;;;;;0.10;0.10;;;12.10;99.90;;;;;;4832735;29;20053;-77
2023/06/01 06:41:10;;;;;;;0.10;0.10;;;12.10;99.90;;;;;;4834115;29;20045;-77
2023/06/01 06:43:35;;;;;;;0.10;0.10;;;12.10;99.90;;;;;;4835855;29;20038;-77
2023/06/01 06:46:01;;;;;;;0.10;0.10;;;12.10;99.90;;;;;;4820789;29;20054;-77
2023/06/01 06:48:27;;;;;;;0.13;0.13;;;12.10;99.90;;;;;;4818078;29;20165;-77
2023/06/01 06:50:53;;;;;;;0.20;0.20;;;12.20;99.90;;;;;;4830825;29;20117;-77
2023/06/01 06:53:18;;;;;;;0.10;0.10;;;12.20;99.90;;;;;;4820593;29;20161;-77
2023/06/01 06:55:44;;;;;;;0.10;0.10;;;12.20;99.90;;;;;;4818475;29;20050;-77
2023/06/01 06:58:10;;;;;;;0.20;0.20;;;12.20;99.90;;;;;;4821642;29;20114;-78
2023/06/01 07:00:37;;;;;;;0.10;0.10;;;12.20;99.90;;;;;;4819631;29;20053;-82
2023/06/01 07:03:03;;;;;;;0.20;0.20;;;12.30;99.90;;;;;;4834773;29;20125;-78
2023/06/01 07:05:29;;;;;;;0.20;0.20;;;12.20;99.90;;;;;;4817601;29;20140;-78
2023/06/01 07:07:55;;;;;;;0.10;0.10;;;12.20;99.90;;;;;;4839379;29;20459;-77
2023/06/01 07:10:21;;;;;;;0.10;0.10;;;12.30;99.90;;;;;;4814750;29;20125;-78
2023/06/01 07:12:46;;;;;;;0.10;0.10;;;12.30;99.90;;;;;;4837517;29;20635;-78
2023/06/01 07:15:12;;;;;;;0.10;0.10;;;12.30;99.90;;;;;;4824767;29;20133;-77
2023/06/01 07:17:38;;;;;;;0.20;0.20;;;12.30;99.90;;;;;;4820909;29;20074;-78
2023/06/01 07:20:07;;;;;;;0.13;0.13;;;12.30;99.90;;;;;;4820272;29;20478;-78
2023/06/01 07:22:33;;;;;;;0.10;0.10;;;12.30;99.90;;;;;;4838407;29;20057;-77
2023/06/01 07:24:59;;;;;;;0.10;0.10;;;12.30;99.90;;;;;;4848718;29;20161;-78
2023/06/01 07:27:26;;;;;;;0.10;0.10;;;12.30;99.90;;;;;;4830397;29;20057;-78
2023/06/01 07:29:54;;;;;;;0.10;0.10;;;12.30;99.90;;;;;;4820485;29;20061;-78
2023/06/01 07:32:25;;;;;;;0.20;0.20;;;12.30;99.90;;;;;;4840463;29;20050;-78
2023/06/01 07:34:51;;;;;;;0.20;0.20;;;12.30;99.90;;;;;;4839383;29;20048;-78
2023/06/01 07:37:21;;;;;;;0.20;0.20;;;12.30;99.90;;;;;;4824660;29;20451;-82
2023/06/01 07:39:48;;;;;;;0.10;0.10;;;12.30;99.90;;;;;;4828592;29;20054;-79
2023/06/01 07:42:14;;;;;;;0.17;0.17;;;12.30;99.90;;;;;;4820387;29;20042;-80
2023/06/01 07:44:40;;;;;;;0.15;0.15;;;12.30;99.90;;;;;;4823543;29;20053;-78
2023/06/01 07:47:06;;;;;;;0.10;0.10;;;12.40;99.90;;;;;;4840899;29;20491;-76
2023/06/01 07:49:31;;;;;;;0.10;0.10;;;12.30;99.90;;;;;;4819939;29;20041;-78
2023/06/01 07:51:58;;;;;;;0.10;0.10;;;12.30;99.90;;;;;;4834037;29;20064;-78
2023/06/01 07:54:24;;;;;;;0.17;0.17;;;12.40;99.90;;;;;;4823081;29;20129;-77
2023/06/01 07:56:50;;;;;;;0.15;0.15;;;12.40;99.90;;;;;;4835949;29;20125;-77
2023/06/01 07:59:16;;;;;;;0.20;0.20;;;12.40;99.90;;;;;;4814653;29;20050;-79
2023/06/01 08:01:42;;;;;;;0.10;0.10;;;12.50;99.90;;;;;;4834447;29;20045;-77
2023/06/01 08:04:08;;;;;;;0.20;0.20;;;12.50;99.90;;;;;;4824286;29;20076;-79
2023/06/01 08:06:38;;;;;;;0.10;0.10;;;12.50;99.90;;;;;;4839923;29;20144;-78
2023/06/01 08:09:04;;;;;;;0.20;0.20;;;12.60;99.90;;;;;;4839214;29;20095;-78
2023/06/01 08:11:29;;;;;;;0.10;0.10;;;12.60;99.90;;;;;;4821899;29;20049;-79
2023/06/01 08:13:56;;;;;;;0.10;0.10;;;12.60;99.90;;;;;;4840583;29;20081;-78
2023/06/01 08:16:21;;;;;;;0.20;0.20;;;12.70;99.90;;;;;;4824945;29;20106;-78
2023/06/01 08:18:47;;;;;;;0.15;0.15;;;12.70;99.90;;;;;;4820230;29;20042;-77
2023/06/01 08:21:13;;;;;;;0.20;0.20;;;12.70;99.90;;;;;;4845567;29;20050;-78
2023/06/01 08:23:38;;;;;;;0.10;0.10;;;12.70;99.90;;;;;;4823811;29;20218;-78
2023/06/01 08:26:04;;;;;;;0.20;0.20;;;12.70;99.90;;;;;;4819038;29;20042;-77
2023/06/01 08:28:32;;;;;;;0.10;0.10;;;12.70;99.90;;;;;;4824540;29;20045;-78
2023/06/01 08:30:57;;;;;;;0.10;0.10;;;12.70;99.90;;;;;;4839345;29;20231;-79
2023/06/01 08:33:23;;;;;;;0.20;0.20;;;12.70;99.90;;;;;;4836420;29;20348;-77
2023/06/01 08:35:49;;;;;;;0.10;0.10;;;12.70;99.90;;;;;;4823959;29;20089;-78
2023/06/01 08:38:14;;;;;;;0.20;0.20;;;12.80;99.90;;;;;;4824701;29;20042;-77
2023/06/01 08:40:40;;;;;;;0.20;0.20;;;12.80;99.90;;;;;;4822645;29;20046;-77
2023/06/01 08:43:20;;;;;;;0.10;0.10;;;12.80;99.90;;;;;;4823062;29;20054;-78
2023/06/01 08:45:49;;;;;;;0.20;0.20;;;12.70;99.90;;;;;;4822709;29;20051;-78
2023/06/01 08:48:17;;;;;;;0.10;0.10;;;12.60;99.90;;;;;;4819384;29;20072;-77
2023/06/01 08:50:53;;;;;;;0.20;0.20;;;12.60;99.90;;;;;;4839389;29;20081;-79
2023/06/01 08:53:21;;;;;;;0.15;0.15;;;12.70;99.90;;;;;;4821264;29;20106;-78
2023/06/01 08:55:51;;;;;;;0.10;0.10;;;12.70;99.90;;;;;;4839947;29;20137;-78
2023/06/01 08:58:17;;;;;;;0.20;0.20;;;12.60;99.90;;;;;;4838916;29;20046;-77
2023/06/01 09:00:43;;;;;;;0.10;0.10;;;12.70;99.90;;;;;;4822199;29;20046;-77
2023/06/01 09:03:09;;;;;;;0.20;0.20;;;12.70;99.90;;;;;;4820441;29;20115;-78
2023/06/01 09:05:35;;;;;;;0.10;0.10;;;12.70;99.90;;;;;;4825183;29;20077;-78
2023/06/01 09:08:02;;;;;;;0.20;0.20;;;12.70;99.90;;;;;;4840105;29;20081;-78
2023/06/01 09:10:27;;;;;;;0.20;0.20;;;12.90;99.90;;;;;;4820832;29;20049;-78
2023/06/01 09:12:54;;;;;;;0.10;0.10;;;12.90;99.90;;;;;;4823700;29;20046;-78
2023/06/01 09:15:21;;;;;;;0.20;0.20;;;12.80;99.90;;;;;;4836706;29;20050;-79
2023/06/01 09:17:50;;;;;;;0.10;0.10;;;12.90;99.90;;;;;;4838477;29;20046;-78
2023/06/01 09:20:27;;;;;;;0.10;0.10;;;12.90;99.90;;;;;;4822089;29;20058;-77
2023/06/01 09:22:53;;;;;;;0.10;0.10;;;12.90;99.90;;;;;;4823082;29;20153;-77
2023/06/01 09:25:26;;;;;;;0.13;0.13;;;12.90;99.90;;;;;;4822362;29;20137;-78
2023/06/01 09:27:53;;;;;;;0.10;0.10;;;12.90;99.90;;;;;;4835919;29;20053;-77
2023/06/01 09:30:23;;;;;;;0.20;0.20;;;12.90;99.90;;;;;;4821716;29;20054;-76
2023/06/01 09:32:53;;;;;;;0.17;0.17;;;12.90;99.90;;;;;;4820187;29;20130;-78
2023/06/01 09:35:41;;;;;;;0.10;0.10;;;12.90;99.90;;;;;;4822520;29;20057;-77
2023/06/01 09:38:06;;;;;;;0.10;0.10;;;12.90;99.90;;;;;;4838943;29;20080;-77
2023/06/01 09:40:34;;;;;;;0.10;0.10;;;12.90;99.90;;;;;;4822843;29;20507;-78
2023/06/01 09:43:02;;;;;;;0.20;0.20;;;12.90;99.90;;;;;;4821546;29;20062;-77
2023/06/01 09:45:30;;;;;;;0.10;0.10;;;12.90;99.90;;;;;;4838567;29;20050;-78
2023/06/01 09:48:17;;;;;;;0.10;0.10;;;12.90;99.90;;;;;;4838825;29;20392;-78
2023/06/01 09:50:43;;;;;;;0.20;0.20;;;12.90;99.90;;;;;;4834250;29;20541;-78
2023/06/01 09:53:09;;;;;;;0.10;0.10;;;12.90;99.90;;;;;;4839475;29;20053;-78
2023/06/01 09:55:35;;;;;;;0.10;0.10;;;12.90;99.90;;;;;;4838723;29;20406;-78
2023/06/01 09:58:21;;;;;;;0.10;0.10;;;12.90;99.90;;;;;;4837230;29;20046;-78
2023/06/01 10:00:48;;;;;;;0.10;0.10;;;13.00;99.90;;;;;;4811930;29;20049;-79
2023/06/01 10:03:15;;;;;;;0.10;0.10;;;13.00;99.90;;;;;;4827964;29;20046;-79
2023/06/01 10:05:43;;;;;;;0.20;0.20;;;13.00;99.90;;;;;;4838272;29;20053;-78
2023/06/01 10:08:11;;;;;;;0.10;0.10;;;13.10;99.90;;;;;;4838788;29;20079;-79
2023/06/01 10:10:38;;;;;;;0.13;0.13;;;13.10;99.90;;;;;;4821255;29;20041;-78
2023/06/01 10:13:03;;;;;;;0.10;0.10;;;13.20;99.90;;;;;;4839508;29;20087;-77
2023/06/01 10:15:29;;;;;;;0.10;0.10;;;13.10;99.90;;;;;;4820584;29;20050;-77
2023/06/01 10:17:55;;;;;;;0.10;0.10;;;13.10;99.90;;;;;;4835190;29;20146;-77
2023/06/01 10:20:21;;;;;;;0.10;0.10;;;13.10;99.90;;;;;;4837891;29;20088;-78
2023/06/01 10:22:48;;;;;;;0.10;0.10;;;13.20;99.90;;;;;;4820412;29;20406;-79
2023/06/01 10:25:17;;;;;;;0.10;0.10;;;13.20;99.90;;;;;;4838501;29;20062;-77
2023/06/01 10:27:52;;;;;;;0.10;0.10;;;13.20;99.90;;;;;;4829529;29;20410;-78
2023/06/01 10:30:18;;;;;;;0.10;0.10;;;13.20;99.90;;;;;;4822385;29;20042;-77
2023/06/01 10:32:48;;;;;;;0.15;0.15;;;13.20;99.90;;;;;;4821243;29;20135;-77
2023/06/01 10:35:26;;;;;;;0.10;0.10;;;14.00;99.90;;;;;;4818530;29;20054;-77
2023/06/01 10:38:12;;;;;;;0.10;0.10;;;13.30;99.90;;;;;;4814015;29;20057;-78
2023/06/01 10:40:42;;;;;;;0.15;0.15;;;13.30;99.90;;;;;;4821837;29;20053;-78
2023/06/01 10:43:27;;;;;;;0.10;0.10;;;13.40;99.90;;;;;;4822838;29;20068;-77
2023/06/01 10:45:53;;;;;;;0.20;0.20;;;13.40;99.90;;;;;;4824436;29;20344;-77
2023/06/01 10:48:51;;;;;;;0.17;0.17;;;13.40;99.90;;;;;;4836972;29;20057;-77
2023/06/01 10:51:24;;;;;;;0.20;0.20;;;13.50;99.90;;;;;;4826002;29;20137;-76
2023/06/01 10:53:50;;;;;;;0.20;0.20;;;13.50;99.90;;;;;;4838056;29;20376;-77
2023/06/01 10:56:26;;;;;;;0.10;0.10;;;13.50;99.90;;;;;;4820939;29;20053;-77
2023/06/01 10:59:09;;;;;;;0.10;0.10;;;13.50;99.90;;;;;;4825802;29;20137;-76
2023/06/01 11:01:41;;;;;;;0.10;0.10;;;13.60;99.90;;;;;;4839917;29;20042;-76
2023/06/01 11:04:07;;;;;;;0.20;0.20;;;13.60;99.90;;;;;;4834462;29;20049;-78
2023/06/01 11:06:42;;;;;;;0.10;0.10;;;13.60;99.90;;;;;;4824779;29;20104;-77
2023/06/01 11:09:10;;;;;;;0.15;0.15;;;13.60;99.90;;;;;;4841991;29;20045;-78
2023/06/01 11:11:50;;;;;;;0.20;0.20;;;13.70;99.90;;;;;;4842110;29;20052;-77
2023/06/01 11:14:23;;;;;;;0.30;0.30;;;13.70;99.90;;;;;;4840696;29;20094;-78
2023/06/01 11:16:50;;;;;;;0.10;0.10;;;13.70;99.90;;;;;;4824285;29;20054;-77
2023/06/01 11:19:27;;;;;;;0.20;0.20;;;13.70;99.90;;;;;;4835571;29;20058;-77
2023/06/01 11:22:00;;;;;;;0.10;0.10;;;13.70;99.90;;;;;;4824342;29;20046;-77
2023/06/01 11:24:35;;;;;;;0.13;0.13;;;13.70;99.90;;;;;;4823852;29;20114;-76
2023/06/01 11:27:06;;;;;;;0.10;0.10;;;13.70;99.90;;;;;;4827056;29;20098;-77
2023/06/01 11:29:32;;;;;;;0.20;0.20;;;13.70;99.90;;;;;;4841406;29;20050;-77
2023/06/01 11:31:59;;;;;;;0.15;0.15;;;13.70;99.90;;;;;;4827297;29;20106;-76
2023/06/01 11:34:41;;;;;;;0.10;0.10;;;13.80;99.90;;;;;;4834954;29;20075;-77
2023/06/01 11:37:18;;;;;;;0.17;0.17;;;13.70;99.90;;;;;;4823765;29;20054;-76
2023/06/01 11:39:45;;;;;;;0.10;0.10;;;13.70;99.90;;;;;;4824883;29;20072;-77
2023/06/01 11:42:19;;;;;;;0.20;0.20;;;13.70;99.90;;;;;;4838495;29;20503;-78
2023/06/01 11:44:55;;;;;;;0.10;0.10;;;13.70;99.90;;;;;;4841243;29;20049;-77
2023/06/01 11:47:21;;;;;;;0.20;0.20;;;13.70;99.90;;;;;;4836314;29;20054;-77
2023/06/01 11:49:49;;;;;;;0.10;0.10;;;13.60;99.90;;;;;;4822851;29;20049;-78
2023/06/01 11:52:18;;;;;;;0.20;0.20;;;13.60;99.90;;;;;;4823629;29;20440;-77
2023/06/01 11:54:45;;;;;;;0.10;0.10;;;13.60;99.90;;;;;;4825683;29;20050;-77
2023/06/01 11:57:11;;;;;;;0.20;0.20;;;13.60;99.90;;;;;;4823525;29;20046;-77
2023/06/01 11:59:45;;;;;;;0.10;0.10;;;13.60;99.90;;;;;;4825448;29;20054;-76
2023/06/01 12:02:29;;;;;;;0.20;0.20;;;13.60;99.90;;;;;;4840369;29;20106;-76
2023/06/01 12:05:08;;;;;;;0.20;0.20;;;13.60;99.90;;;;;;4834136;29;20049;-77
2023/06/01 12:07:44;;;;;;;0.10;0.10;;;13.70;99.90;;;;;;4806056;29;20106;-78
2023/06/01 12:10:14;;;;;;;0.10;0.10;;;13.70;99.90;;;;;;4815172;29;20056;-78
2023/06/01 12:12:40;;;;;;;0.20;0.20;;;13.70;99.90;;;;;;4825012;29;20058;-78
2023/06/01 12:15:07;;;;;;;0.10;0.10;;;13.70;99.90;;;;;;4822576;29;20194;-78
2023/06/01 12:17:46;;;;;;;0.15;0.15;;;13.60;99.90;;;;;;4823353;29;20475;-78
2023/06/01 12:20:12;;;;;;;0.10;0.10;;;13.70;99.90;;;;;;4839887;29;20107;-77
2023/06/01 12:22:38;;;;;;;0.10;0.10;;;13.70;99.90;;;;;;4842892;29;20065;-77
2023/06/01 12:25:08;;;;;;;0.20;0.20;;;13.70;99.90;;;;;;4827245;29;20050;-77
2023/06/01 12:27:37;;;;;;;0.10;0.10;;;13.60;99.90;;;;;;4841121;29;20050;-77
2023/06/01 12:30:19;;;;;;;0.20;0.20;;;13.70;99.90;;;;;;4846100;29;20089;-78
2023/06/01 12:32:45;;;;;;;0.20;0.20;;;13.60;99.90;;;;;;4857730;29;20546;-78
2023/06/01 12:35:10;;;;;;;0.10;0.10;;;13.60;99.90;;;;;;4827877;29;20062;-77
2023/06/01 12:37:36;;;;;;;0.10;0.10;;;13.60;99.90;;;;;;4838768;29;20061;-78
2023/06/01 12:40:03;;;;;;;0.10;0.10;;;13.50;99.90;;;;;;4815998;29;20543;-78
2023/06/01 12:42:38;;;;;;;0.20;0.20;;;13.60;99.90;;;;;;4840676;29;20050;-78
2023/06/01 12:45:05;;;;;;;0.20;0.20;;;13.60;99.90;;;;;;4831684;29;20054;-79
2023/06/01 12:47:41;;;;;;;0.10;0.10;;;13.60;99.90;;;;;;4822877;29;20054;-77
2023/06/01 12:50:09;;;;;;;0.20;0.20;;;13.50;99.90;;;;;;4839764;29;20045;-78
2023/06/01 12:52:36;;;;;;;0.20;0.20;;;13.50;99.90;;;;;;4822711;29;20069;-77